logo
Search for airport 
image banner adimage banner adimage banner ad
image banner ad

BISF - Selfoss

Located in Selfoss, Iceland

ICAO - BISF, IATA -

Data provided by Airmate  

General information

Coordinates: N63°55'45" W21°2'16"
Elevation is 47 feet MSL.
 
View others Airports in South

Operational data

Special qualification required
Current time UTC:
Current local time:
Weather at : BIRK - Reykjavik ( 49 km )
METAR: BIRK 161800Z 33007KT 9999 OVC015 12/09 Q1009
TAF: TAF BIRK 161602Z 1618/1718 VRB03KT 9999 SCT015 BKN020 TX13/1715Z TN10/1703Z BECMG 1620/1622 -RADZ BKN010 OVC018 PROB40 TEMPO 1622/1718 RADZ OVC007
View NOTAMs / SUP AIP / TFR affecting this airport [VIEW]
Communications frequencies: [VIEW]

Runways:

RWY identifierQFULength (ft)Width (ft)SurfaceLDA (ft)
0534°261898GRASS
23214°261898GRASS
14130°260598GRASS
32310°260598GRASS

Airport contact information

Address: Selfoss Iceland

Satellite view of BISF